X  Κλείσε Στοιχεία αεροπορικών μετεωρολογικών δεδομένων METAR        LGTS Thessaloniki Macedonia International
θερμοκρασία
64°F θερμοκρασία
54°F Σημείο δρόσου
68% Υγρασία



Ανεμος
3 MPH
6 KM/H
1 M/S
3 KTS



-1°
VRB
Τρέχουσες συνθήκες

Mostly Clear Σχεδόν ξεκάθαρα
πίεση 1010 (hPa) - 29.82 (inHg)
Ορατότητα 6 (μίλι) - 10 (km)
Aεροδρόμιο
Κωδικός αεροδρομίου LGTS

Τοποθεσία: Thessaloniki Macedonia International
Απόσταση: 85 (mi)

Metar:
METAR LGTS 302220Z VRB03KT 9999 FEW025 18/12 Q1010 NOSIG

ώρα: 31-05-2024 01:20 EEST